createdAt,value
2024-03-05T00:01:53.218Z,7.60
2024-03-05T00:04:55.105Z,7.60
2024-03-05T00:07:56.948Z,7.25
2024-03-05T00:10:58.853Z,7.25
2024-03-05T00:14:00.780Z,6.97
2024-03-05T00:17:04.397Z,8.35
2024-03-05T00:20:14.312Z,7.63
2024-03-05T00:23:16.184Z,7.40
2024-03-05T00:26:19.349Z,7.53
2024-03-05T00:29:21.168Z,7.18
2024-03-05T00:32:24.250Z,7.55
2024-03-05T00:35:26.050Z,7.85
2024-03-05T00:38:33.573Z,7.35
2024-03-05T00:41:36.028Z,8.02
2024-03-05T00:44:37.827Z,7.00
2024-03-05T00:47:40.959Z,7.88
2024-03-05T00:50:43.267Z,7.47
2024-03-05T00:53:44.977Z,7.82
2024-03-05T00:56:46.805Z,8.07
2024-03-05T00:59:49.815Z,7.78
2024-03-05T01:02:53.001Z,7.43
2024-03-05T01:05:54.731Z,7.65
2024-03-05T01:08:56.844Z,7.72
2024-03-05T01:11:58.779Z,7.70
2024-03-05T01:15:01.390Z,8.05
2024-03-05T01:18:05.513Z,8.75
2024-03-05T01:21:07.490Z,8.55
2024-03-05T01:24:12.166Z,8.75
2024-03-05T01:27:14.127Z,7.45
2024-03-05T01:30:15.884Z,7.30
2024-03-05T01:33:22.005Z,7.93
2024-03-05T01:36:24.370Z,8.18
2024-03-05T01:39:30.211Z,6.95
2024-03-05T01:42:32.207Z,7.80
2024-03-05T01:45:34.563Z,7.50
2024-03-05T01:48:38.039Z,8.48
2024-03-05T01:51:40.407Z,8.35
2024-03-05T01:54:43.203Z,7.57
2024-03-05T01:57:47.752Z,7.82
2024-03-05T02:00:50.078Z,7.93
2024-03-05T02:03:55.156Z,7.72
2024-03-05T02:09:59.732Z,7.15
2024-03-05T02:13:01.953Z,6.90
2024-03-05T02:16:05.218Z,8.02
2024-03-05T02:19:12.435Z,8.43
2024-03-05T02:22:15.645Z,8.10
2024-03-05T02:25:19.236Z,8.35
2024-03-05T02:28:21.617Z,8.30
2024-03-05T02:31:24.198Z,9.05
2024-03-05T02:34:27.116Z,8.43
2024-03-05T02:37:30.449Z,9.15
2024-03-05T02:40:32.605Z,7.97
2024-03-05T02:43:34.930Z,8.00
2024-03-05T02:46:36.986Z,7.93
2024-03-05T02:49:38.838Z,8.98
2024-03-05T02:52:42.267Z,9.23
2024-03-05T02:55:44.531Z,9.00
2024-03-05T02:58:46.313Z,7.97
2024-03-05T03:01:48.262Z,7.68
2024-03-05T03:04:52.517Z,8.60
2024-03-05T03:07:55.868Z,8.23
2024-03-05T03:10:58.091Z,8.15
2024-03-05T03:13:59.953Z,8.35
2024-03-05T03:17:01.893Z,9.00
2024-03-05T03:20:04.945Z,8.13
2024-03-05T03:23:08.288Z,7.95
2024-03-05T03:26:10.584Z,7.63
2024-03-05T03:29:12.774Z,8.50
2024-03-05T03:32:15.520Z,7.40
2024-03-05T03:35:18.089Z,7.05
2024-03-05T03:38:21.247Z,8.35
2024-03-05T03:41:23.024Z,8.38
2024-03-05T03:44:25.229Z,8.57
2024-03-05T03:47:26.959Z,8.02
2024-03-05T03:50:28.672Z,8.00
2024-03-05T03:53:34.753Z,8.18
2024-03-05T03:56:37.214Z,7.57
2024-03-05T03:59:38.967Z,7.68
2024-03-05T04:02:41.715Z,7.18
2024-03-05T04:05:46.043Z,7.93
2024-03-05T04:08:49.173Z,8.20
2024-03-05T04:11:51.160Z,7.22
2024-03-05T04:14:53.170Z,8.73
2024-03-05T04:17:55.536Z,7.88
2024-03-05T04:20:58.075Z,8.43
2024-03-05T04:24:01.175Z,9.07
2024-03-05T04:27:04.561Z,8.35
2024-03-05T04:30:11.862Z,8.43
2024-03-05T04:33:16.890Z,7.53
2024-03-05T04:39:23.302Z,7.70
2024-03-05T04:42:25.959Z,8.55
2024-03-05T04:45:28.553Z,8.30
2024-03-05T04:48:30.272Z,6.60
2024-03-05T04:51:32.232Z,7.93
2024-03-05T04:54:36.061Z,7.93
2024-03-05T04:57:37.953Z,7.60
2024-03-05T05:00:39.986Z,7.88
2024-03-05T05:03:44.098Z,6.88
2024-03-05T05:06:45.954Z,7.00
2024-03-05T05:09:49.207Z,8.15
2024-03-05T05:12:50.999Z,9.15
2024-03-05T05:15:52.736Z,8.80
2024-03-05T05:18:54.807Z,9.65
2024-03-05T05:21:56.502Z,9.25
2024-03-05T05:25:00.119Z,9.60
2024-03-05T05:28:01.881Z,10.00
2024-03-05T05:31:06.900Z,9.80
2024-03-05T05:37:11.106Z,10.48
2024-03-05T05:40:20.240Z,10.40
2024-03-05T05:43:23.530Z,10.38
2024-03-05T05:46:26.180Z,10.70
2024-03-05T05:49:28.613Z,11.48
2024-03-05T05:52:30.390Z,10.88
2024-03-05T05:55:35.980Z,11.15
2024-03-05T05:58:38.007Z,11.02
2024-03-05T06:01:39.996Z,11.95
2024-03-05T06:04:42.519Z,11.73
2024-03-05T06:07:44.751Z,12.45
2024-03-05T06:10:47.967Z,12.32
2024-03-05T06:13:49.946Z,12.23
2024-03-05T06:16:51.812Z,11.05
2024-03-05T06:19:56.307Z,12.13
2024-03-05T06:23:00.395Z,11.98
2024-03-05T06:26:03.976Z,10.75
2024-03-05T06:29:07.831Z,11.70
2024-03-05T06:32:11.472Z,11.05
2024-03-05T06:35:13.413Z,11.05
2024-03-05T06:38:16.139Z,11.55
2024-03-05T06:41:20.146Z,11.32
2024-03-05T06:44:26.587Z,11.18
2024-03-05T06:47:39.061Z,11.07
2024-03-05T06:50:44.206Z,11.38
2024-03-05T06:54:04.682Z,10.60
2024-03-05T06:57:09.614Z,10.73
2024-03-05T07:00:18.663Z,9.77
2024-03-05T07:03:23.333Z,9.27
2024-03-05T07:06:25.162Z,10.45
2024-03-05T07:09:31.829Z,9.52
2024-03-05T07:12:35.998Z,9.50
2024-03-05T07:15:37.784Z,10.15
2024-03-05T07:18:39.528Z,8.85
2024-03-05T07:21:41.374Z,9.90
2024-03-05T07:24:43.125Z,9.63
2024-03-05T07:27:50.466Z,9.02
2024-03-05T07:30:52.195Z,9.13
2024-03-05T07:33:55.757Z,10.57
2024-03-05T07:36:57.507Z,9.73
2024-03-05T07:39:59.281Z,9.95
2024-03-05T07:43:09.801Z,10.40
2024-03-05T07:46:11.820Z,9.82
2024-03-05T07:49:13.839Z,9.30
2024-03-05T07:52:15.739Z,10.85
2024-03-05T07:55:25.709Z,9.52
2024-03-05T07:58:32.410Z,9.50
2024-03-05T08:01:34.748Z,10.07
2024-03-05T08:04:36.615Z,10.93
2024-03-05T08:07:38.561Z,10.30
2024-03-05T08:10:40.395Z,9.52
2024-03-05T08:13:46.762Z,9.52
2024-03-05T08:16:48.814Z,10.20
2024-03-05T08:19:50.798Z,9.23
2024-03-05T08:22:53.871Z,9.55
2024-03-05T08:25:55.900Z,9.75
2024-03-05T08:28:59.441Z,9.02
2024-03-05T08:32:01.595Z,10.85
2024-03-05T08:35:03.568Z,10.43
2024-03-05T08:38:05.797Z,11.70
2024-03-05T08:41:07.794Z,10.77
2024-03-05T08:44:11.062Z,11.43
2024-03-05T08:47:14.174Z,10.75
2024-03-05T08:50:16.765Z,11.27
2024-03-05T08:53:18.473Z,11.25
2024-03-05T08:56:20.277Z,11.20
2024-03-05T08:59:23.431Z,12.05
2024-03-05T09:02:25.513Z,9.95
2024-03-05T09:05:27.444Z,12.07
2024-03-05T09:08:29.215Z,10.95
2024-03-05T09:11:30.982Z,10.93
2024-03-05T09:14:35.476Z,11.07
2024-03-05T09:17:37.552Z,12.98
2024-03-05T09:20:39.498Z,10.43
2024-03-05T09:23:41.396Z,10.18
2024-03-05T09:26:43.485Z,10.60
2024-03-05T09:29:47.200Z,11.10
2024-03-05T09:32:49.002Z,8.05
2024-03-05T09:35:50.980Z,11.55
2024-03-05T09:38:52.886Z,8.10
2024-03-05T09:41:54.714Z,11.57
2024-03-05T09:44:57.812Z,11.07
2024-03-05T09:48:00.334Z,9.65
2024-03-05T09:51:03.437Z,10.77
2024-03-05T09:54:07.385Z,8.82
2024-03-05T09:57:09.524Z,9.68
2024-03-05T10:00:21.756Z,9.32
2024-03-05T10:03:23.743Z,10.18
2024-03-05T10:06:26.305Z,10.63
2024-03-05T10:09:28.411Z,7.63
2024-03-05T10:12:30.624Z,9.73
2024-03-05T10:15:37.021Z,9.45
2024-03-05T10:18:38.808Z,10.38
2024-03-05T10:21:40.943Z,8.65
2024-03-05T10:24:42.765Z,8.38
2024-03-05T10:27:46.870Z,8.77
2024-03-05T10:30:59.637Z,9.13
2024-03-05T10:34:01.401Z,9.13
2024-03-05T10:37:05.451Z,8.35
2024-03-05T10:40:10.133Z,9.43
2024-03-05T10:43:12.072Z,9.27
2024-03-05T10:46:15.499Z,8.52
2024-03-05T10:49:20.675Z,9.45
2024-03-05T10:52:26.035Z,8.60
2024-03-05T10:55:28.708Z,8.90
2024-03-05T10:58:53.438Z,7.78
2024-03-05T11:01:59.892Z,8.25
2024-03-05T11:05:03.573Z,9.40
2024-03-05T11:08:07.508Z,9.18
2024-03-05T11:11:15.026Z,8.35
2024-03-05T11:14:18.802Z,8.70
2024-03-05T11:17:23.793Z,8.93
2024-03-05T11:20:44.506Z,7.93
2024-03-05T11:23:55.493Z,7.82
2024-03-05T11:27:12.742Z,7.88
2024-03-05T11:30:19.032Z,8.20
2024-03-05T11:33:25.558Z,7.50
2024-03-05T11:36:27.496Z,8.02
2024-03-05T11:39:29.485Z,7.50
2024-03-05T11:42:33.986Z,7.20
2024-03-05T11:45:49.473Z,8.40
2024-03-05T11:49:00.988Z,7.22
2024-03-05T11:52:02.786Z,7.50
2024-03-05T11:55:06.944Z,6.28
2024-03-05T11:58:08.731Z,6.38
2024-03-05T12:01:10.706Z,8.40
2024-03-05T12:04:14.471Z,8.30
2024-03-05T12:07:16.223Z,7.63
2024-03-05T12:10:20.808Z,6.57
2024-03-05T12:13:22.567Z,6.80
2024-03-05T12:16:24.457Z,7.72
2024-03-05T12:19:27.878Z,6.45
2024-03-05T12:22:29.643Z,7.25
2024-03-05T12:25:31.484Z,6.18
2024-03-05T12:28:33.379Z,7.25
2024-03-05T12:31:35.766Z,6.93
2024-03-05T12:34:41.016Z,6.07
2024-03-05T12:37:42.868Z,5.47
2024-03-05T12:40:45.044Z,6.05
2024-03-05T12:43:54.063Z,5.47
2024-03-05T12:47:09.493Z,4.47
2024-03-05T12:50:13.736Z,5.30
2024-03-05T12:53:15.929Z,5.00
2024-03-05T12:56:17.891Z,3.38
2024-03-05T12:59:20.789Z,4.13
2024-03-05T13:02:22.682Z,4.20
2024-03-05T13:05:25.816Z,4.53
2024-03-05T13:08:27.671Z,5.10
2024-03-05T13:11:29.525Z,5.15
2024-03-05T13:14:31.822Z,4.70
2024-03-05T13:17:34.028Z,4.72
2024-03-05T13:20:37.962Z,4.00
2024-03-05T13:23:41.451Z,4.88
2024-03-05T13:26:47.571Z,4.47
2024-03-05T13:29:55.915Z,4.53
2024-03-05T13:33:05.976Z,4.57
2024-03-05T13:36:13.293Z,4.55
2024-03-05T13:39:19.409Z,4.50
2024-03-05T13:42:22.266Z,4.72
2024-03-05T13:45:24.039Z,4.75
2024-03-05T13:48:26.821Z,4.85
2024-03-05T13:51:30.357Z,4.72
2024-03-05T13:54:32.171Z,4.82
2024-03-05T13:57:34.069Z,5.35
2024-03-05T14:00:39.021Z,5.65
2024-03-05T14:03:40.832Z,5.32
2024-03-05T14:06:43.863Z,5.30
2024-03-05T14:09:46.921Z,5.60
2024-03-05T14:12:51.441Z,5.15
2024-03-05T14:15:53.370Z,5.78
2024-03-05T14:18:55.322Z,6.20
2024-03-05T14:22:01.374Z,6.30
2024-03-05T14:25:03.671Z,6.30
2024-03-05T14:28:09.334Z,5.80
2024-03-05T14:31:12.633Z,5.13
2024-03-05T14:34:14.435Z,5.47
2024-03-05T14:37:17.450Z,4.78
2024-03-05T14:40:19.917Z,4.20
2024-03-05T14:43:22.449Z,4.07
2024-03-05T14:46:26.053Z,3.92
2024-03-05T14:49:28.257Z,4.00
2024-03-05T14:52:31.418Z,3.85
2024-03-05T14:55:33.323Z,4.47
2024-03-05T14:58:35.309Z,3.90
2024-03-05T15:01:37.106Z,4.03
2024-03-05T15:04:39.110Z,3.88
2024-03-05T15:07:43.761Z,4.60
2024-03-05T15:10:45.649Z,4.10
2024-03-05T15:13:47.566Z,4.03
2024-03-05T15:16:49.402Z,3.95
2024-03-05T15:19:51.176Z,3.42
2024-03-05T15:22:54.581Z,4.15
2024-03-05T15:25:56.373Z,4.03
2024-03-05T15:28:59.764Z,3.83
2024-03-05T15:32:02.517Z,3.95
2024-03-05T15:35:05.375Z,3.65
2024-03-05T15:38:09.228Z,3.85
2024-03-05T15:41:11.432Z,3.47
2024-03-05T15:44:13.481Z,3.22
2024-03-05T15:47:15.405Z,2.90
2024-03-05T15:50:22.435Z,3.05
2024-03-05T15:53:26.033Z,3.00
2024-03-05T15:56:46.694Z,2.80
2024-03-05T16:00:07.695Z,2.40
2024-03-05T16:03:15.054Z,2.30
2024-03-05T16:06:19.435Z,2.03
2024-03-05T16:09:23.179Z,2.33
2024-03-05T16:12:25.151Z,2.55
2024-03-05T16:15:27.746Z,2.03
2024-03-05T16:18:29.701Z,2.30
2024-03-05T16:21:34.297Z,1.75
2024-03-05T16:24:37.374Z,1.67
2024-03-05T16:27:40.935Z,1.60
2024-03-05T16:30:43.551Z,1.80
2024-03-05T16:33:45.697Z,1.73
2024-03-05T16:36:48.571Z,1.58
2024-03-05T16:39:52.021Z,1.80
2024-03-05T16:42:55.142Z,1.50
2024-03-05T16:45:58.518Z,1.60
2024-03-05T16:49:02.243Z,1.50
2024-03-05T16:52:05.561Z,1.50
2024-03-05T16:55:10.489Z,1.58
2024-03-05T16:58:15.433Z,1.40
2024-03-05T17:01:19.713Z,1.67
2024-03-05T17:04:24.804Z,1.48
2024-03-05T17:07:28.655Z,1.50
2024-03-05T17:10:35.462Z,1.65
2024-03-05T17:13:42.366Z,2.28
2024-03-05T17:16:46.856Z,2.33
2024-03-05T17:19:48.877Z,1.83
2024-03-05T17:22:53.121Z,1.70
2024-03-05T17:25:58.064Z,1.60
2024-03-05T17:29:06.953Z,1.60
2024-03-05T17:32:10.774Z,1.90
2024-03-05T17:35:12.992Z,2.28
2024-03-05T17:38:15.155Z,2.35
2024-03-05T17:41:18.563Z,1.95
2024-03-05T17:44:20.455Z,1.80
2024-03-05T17:47:22.721Z,3.38
2024-03-05T17:50:25.784Z,1.90
2024-03-05T17:53:27.660Z,1.88
2024-03-05T17:56:31.301Z,2.20
2024-03-05T17:59:33.726Z,2.17
2024-03-05T18:02:36.435Z,2.00
2024-03-05T18:05:38.644Z,2.03
2024-03-05T18:08:40.655Z,2.40
2024-03-05T18:11:43.793Z,5.32
2024-03-05T18:14:47.041Z,3.50
2024-03-05T18:17:50.024Z,2.88
2024-03-05T18:20:51.923Z,3.58
2024-03-05T18:23:55.590Z,3.38
2024-03-05T18:27:04.885Z,3.15
2024-03-05T18:30:09.075Z,2.53
2024-03-05T18:33:12.516Z,2.75
2024-03-05T18:36:16.759Z,2.00
2024-03-05T18:39:19.009Z,2.55
2024-03-05T18:42:22.325Z,4.47
2024-03-05T18:45:29.315Z,2.88
2024-03-05T18:48:31.434Z,2.53
2024-03-05T18:51:33.821Z,2.95
2024-03-05T18:54:35.703Z,3.58
2024-03-05T18:57:39.012Z,3.60
2024-03-05T19:00:44.488Z,3.35
2024-03-05T19:03:46.441Z,3.40
2024-03-05T19:06:49.035Z,3.25
2024-03-05T19:09:50.742Z,3.25
2024-03-05T19:12:55.131Z,3.03
2024-03-05T19:15:56.848Z,3.20
2024-03-05T19:18:58.717Z,3.22
2024-03-05T19:22:00.376Z,3.05
2024-03-05T19:25:03.356Z,3.20
2024-03-05T19:28:07.971Z,2.58
2024-03-05T19:31:10.822Z,3.20
2024-03-05T19:34:13.115Z,2.90
2024-03-05T19:37:16.418Z,2.83
2024-03-05T19:40:20.369Z,3.33
2024-03-05T19:43:23.602Z,2.75
2024-03-05T19:46:25.586Z,2.90
2024-03-05T19:49:29.197Z,2.70
2024-03-05T19:52:31.105Z,3.60
2024-03-05T19:55:34.552Z,3.78
2024-03-05T19:58:38.420Z,3.10
2024-03-05T20:01:40.571Z,3.50
2024-03-05T20:04:42.399Z,3.53
2024-03-05T20:07:45.662Z,4.53
2024-03-05T20:10:47.914Z,3.10
2024-03-05T20:13:51.140Z,4.15
2024-03-05T20:16:53.267Z,3.05
2024-03-05T20:19:55.198Z,2.85
2024-03-05T20:22:57.571Z,3.90
2024-03-05T20:25:59.443Z,2.58
2024-03-05T20:29:03.901Z,2.30
2024-03-05T20:32:07.272Z,2.97
2024-03-05T20:35:13.544Z,2.67
2024-03-05T20:38:15.718Z,2.28
2024-03-05T20:41:18.668Z,3.05
2024-03-05T20:44:21.942Z,2.58
2024-03-05T20:47:23.810Z,3.28
2024-03-05T20:50:25.756Z,3.22
2024-03-05T20:53:27.511Z,3.33
2024-03-05T20:56:29.320Z,3.15
2024-03-05T20:59:34.789Z,3.50
2024-03-05T21:02:37.052Z,3.70
2024-03-05T21:05:41.732Z,3.88
2024-03-05T21:08:43.661Z,4.80
2024-03-05T21:11:47.309Z,3.90
2024-03-05T21:14:50.553Z,4.82
2024-03-05T21:17:55.177Z,4.78
2024-03-05T21:20:57.140Z,3.90
2024-03-05T21:23:58.970Z,3.90
2024-03-05T21:27:16.123Z,3.75
2024-03-05T21:30:24.152Z,3.22
2024-03-05T21:33:26.169Z,3.45
2024-03-05T21:36:28.047Z,2.58
2024-03-05T21:39:29.964Z,3.03
2024-03-05T21:42:32.223Z,2.95
2024-03-05T21:45:36.546Z,3.65
2024-03-05T21:48:38.480Z,2.67
2024-03-05T21:51:40.385Z,3.13
2024-03-05T21:54:42.265Z,5.03
2024-03-05T21:57:44.360Z,4.47
2024-03-05T22:00:48.649Z,4.32
2024-03-05T22:03:50.552Z,3.95
2024-03-05T22:06:55.793Z,3.75
2024-03-05T22:09:58.026Z,3.63
2024-03-05T22:12:59.817Z,3.58
2024-03-05T22:16:03.552Z,3.33
2024-03-05T22:19:06.055Z,3.45
2024-03-05T22:22:10.220Z,3.78
2024-03-05T22:25:11.997Z,3.78
2024-03-05T22:28:16.041Z,4.05
2024-03-05T22:31:19.189Z,3.58
2024-03-05T22:34:21.094Z,3.22
2024-03-05T22:37:22.944Z,3.35
2024-03-05T22:40:24.807Z,3.85
2024-03-05T22:43:27.203Z,3.80
2024-03-05T22:46:30.466Z,3.60
2024-03-05T22:49:32.417Z,3.67
2024-03-05T22:52:34.429Z,3.00
2024-03-05T22:55:36.880Z,3.42
2024-03-05T22:58:39.068Z,3.25
2024-03-05T23:01:42.512Z,3.20
2024-03-05T23:04:44.372Z,3.40
2024-03-05T23:07:47.203Z,3.60
2024-03-05T23:10:49.803Z,3.97
2024-03-05T23:13:53.422Z,3.15
2024-03-05T23:16:56.921Z,3.67
2024-03-05T23:19:59.040Z,3.95
2024-03-05T23:23:00.985Z,3.78
2024-03-05T23:26:03.778Z,4.15
2024-03-05T23:29:05.923Z,3.63
2024-03-05T23:32:09.844Z,2.90
2024-03-05T23:35:12.518Z,3.00
2024-03-05T23:38:14.420Z,3.25
2024-03-05T23:41:24.848Z,3.00
2024-03-05T23:44:33.426Z,3.45
2024-03-05T23:47:37.045Z,3.22
2024-03-05T23:50:38.869Z,2.90
2024-03-05T23:53:40.698Z,3.53
2024-03-05T23:56:42.647Z,3.08
2024-03-05T23:59:45.835Z,3.30
